createdAt,value
2019-04-20T00:01:29.425Z,37.70
2019-04-20T00:03:55.687Z,37.90
2019-04-20T00:06:24.971Z,38.30
2019-04-20T00:09:03.270Z,38.50
2019-04-20T00:11:29.580Z,38.20
2019-04-20T00:14:04.082Z,38.20
2019-04-20T00:16:25.523Z,38.40
2019-04-20T00:18:58.345Z,38.90
2019-04-20T00:21:46.952Z,38.90
2019-04-20T00:24:31.962Z,38.90
2019-04-20T00:27:13.599Z,39.10
2019-04-20T00:29:45.245Z,39.10
2019-04-20T00:32:11.452Z,39.30
2019-04-20T00:34:32.189Z,40.30
2019-04-20T00:37:00.162Z,40.00
2019-04-20T00:39:29.955Z,40.10
2019-04-20T00:42:02.316Z,39.90
2019-04-20T00:44:34.132Z,40.00
2019-04-20T00:47:12.898Z,40.10
2019-04-20T00:49:45.650Z,39.60
2019-04-20T00:54:32.482Z,40.00
2019-04-20T00:57:15.598Z,40.30
2019-04-20T00:59:51.862Z,40.20
2019-04-20T01:02:19.316Z,40.10
2019-04-20T01:04:54.967Z,40.40
2019-04-20T01:07:15.471Z,40.70
2019-04-20T01:09:54.199Z,40.70
2019-04-20T01:12:26.757Z,40.40
2019-04-20T01:15:00.596Z,40.70
2019-04-20T01:17:24.162Z,40.90
2019-04-20T01:19:54.078Z,41.00
2019-04-20T01:22:25.432Z,41.50
2019-04-20T01:24:54.901Z,41.70
2019-04-20T01:27:38.987Z,41.80
2019-04-20T01:30:06.956Z,42.00
2019-04-20T01:32:37.221Z,42.00
2019-04-20T01:35:10.037Z,41.90
2019-04-20T01:37:36.457Z,42.10
2019-04-20T01:39:59.307Z,42.10
2019-04-20T01:42:27.535Z,41.90
2019-04-20T01:44:57.391Z,41.60
2019-04-20T01:47:32.253Z,42.10
2019-04-20T01:50:03.774Z,42.60
2019-04-20T01:52:39.738Z,42.50
2019-04-20T01:55:24.782Z,42.80
2019-04-20T01:57:59.887Z,42.70
2019-04-20T02:00:25.305Z,43.20
2019-04-20T02:03:08.621Z,43.20
2019-04-20T02:05:39.988Z,43.60
2019-04-20T02:08:12.781Z,43.50
2019-04-20T02:10:45.963Z,43.80
2019-04-20T02:13:10.859Z,43.60
2019-04-20T02:15:45.206Z,43.50
2019-04-20T02:18:26.209Z,44.00
2019-04-20T02:21:00.032Z,44.20
2019-04-20T02:23:25.314Z,44.20
2019-04-20T02:25:41.882Z,44.20
2019-04-20T02:28:25.741Z,44.50
2019-04-20T02:31:28.552Z,44.00
2019-04-20T02:33:47.459Z,44.30
2019-04-20T02:36:27.728Z,44.30
2019-04-20T02:41:44.577Z,44.70
2019-04-20T02:46:41.364Z,45.30
2019-04-20T02:50:07.474Z,45.00
2019-04-20T02:51:42.306Z,45.50
2019-04-20T02:54:18.688Z,45.20
2019-04-20T02:56:48.106Z,45.60
2019-04-20T03:01:32.325Z,45.00
2019-04-20T03:03:46.945Z,45.50
2019-04-20T03:06:23.300Z,45.40
2019-04-20T03:09:04.566Z,45.60
2019-04-20T03:11:40.451Z,45.70
2019-04-20T03:14:03.965Z,45.60
2019-04-20T03:16:32.424Z,46.00
2019-04-20T03:19:02.991Z,45.60
2019-04-20T03:21:41.854Z,46.00
2019-04-20T03:24:12.767Z,46.80
2019-04-20T03:26:40.344Z,46.50
2019-04-20T03:29:12.823Z,46.90
2019-04-20T03:37:04.716Z,46.70
2019-04-20T03:39:27.361Z,47.20
2019-04-20T03:41:43.236Z,46.90
2019-04-20T03:44:12.589Z,47.20
2019-04-20T03:46:45.721Z,48.10
2019-04-20T03:49:27.863Z,47.50
2019-04-20T03:52:06.005Z,47.60
2019-04-20T03:54:41.345Z,48.10
2019-04-20T03:57:31.080Z,48.70
2019-04-20T03:59:56.115Z,48.10
2019-04-20T04:03:01.475Z,48.00
2019-04-20T04:05:23.851Z,48.40
2019-04-20T04:07:43.173Z,48.40
2019-04-20T04:10:20.789Z,49.40
2019-04-20T04:13:03.023Z,49.10
2019-04-20T04:15:36.218Z,49.20
2019-04-20T04:18:07.488Z,49.00
2019-04-20T04:20:39.729Z,49.10
2019-04-20T04:23:19.087Z,49.60
2019-04-20T04:25:54.551Z,50.00
2019-04-20T04:28:22.525Z,49.50
2019-04-20T04:30:56.317Z,49.30
2019-04-20T04:33:46.195Z,49.70
2019-04-20T04:35:51.621Z,50.40
2019-04-20T04:38:33.953Z,50.50
2019-04-20T04:41:09.669Z,50.60
2019-04-20T04:43:26.787Z,50.50
2019-04-20T04:45:38.679Z,50.20
2019-04-20T04:48:14.684Z,49.90
2019-04-20T04:50:47.466Z,50.20
2019-04-20T04:53:17.145Z,50.00
2019-04-20T04:55:48.750Z,50.20
2019-04-20T04:58:10.604Z,49.90
2019-04-20T05:00:40.720Z,49.80
2019-04-20T05:03:28.230Z,50.20
2019-04-20T05:06:00.483Z,50.10
2019-04-20T05:08:23.415Z,49.70
2019-04-20T05:10:44.105Z,48.60
2019-04-20T05:13:13.968Z,47.00
2019-04-20T05:15:59.308Z,45.50
2019-04-20T05:18:41.523Z,44.20
2019-04-20T05:21:04.419Z,42.80
2019-04-20T05:23:34.134Z,41.70
2019-04-20T05:26:20.177Z,39.40
2019-04-20T05:28:43.063Z,38.40
2019-04-20T05:31:06.085Z,37.00
2019-04-20T05:33:57.102Z,35.60
2019-04-20T05:36:23.256Z,34.40
2019-04-20T05:38:54.448Z,32.90
2019-04-20T05:41:24.036Z,31.60
2019-04-20T05:43:56.633Z,30.10
2019-04-20T05:46:42.499Z,29.10
2019-04-20T05:51:35.305Z,28.80
2019-04-20T05:54:02.339Z,28.10
2019-04-20T05:56:35.858Z,27.40
2019-04-20T05:58:59.617Z,26.50
2019-04-20T06:01:33.395Z,26.40
2019-04-20T06:04:03.052Z,25.90
2019-04-20T06:06:33.282Z,25.70
2019-04-20T06:09:12.358Z,24.80
2019-04-20T06:12:04.886Z,25.20
2019-04-20T06:14:05.798Z,24.30
2019-04-20T06:16:52.235Z,23.90
2019-04-20T06:19:26.331Z,23.50
2019-04-20T06:21:57.611Z,23.40
2019-04-20T06:24:35.370Z,23.60
2019-04-20T06:27:01.026Z,22.80
2019-04-20T06:29:23.686Z,22.30
2019-04-20T06:31:59.159Z,22.90
2019-04-20T06:37:05.816Z,21.40
2019-04-20T06:39:40.377Z,20.50
2019-04-20T06:44:37.015Z,19.40
2019-04-20T06:52:15.355Z,19.10
2019-04-20T06:55:00.322Z,19.50
2019-04-20T06:57:33.222Z,19.00
2019-04-20T06:59:59.623Z,19.20
2019-04-20T07:02:35.976Z,19.70
2019-04-20T07:05:02.524Z,19.20
2019-04-20T07:07:32.102Z,18.80
2019-04-20T07:10:08.698Z,18.80
2019-04-20T07:12:31.195Z,19.20
2019-04-20T07:14:55.563Z,19.00
2019-04-20T07:20:04.185Z,18.30
2019-04-20T07:22:43.992Z,18.20
2019-04-20T07:25:05.432Z,18.00
2019-04-20T07:27:41.570Z,18.20
2019-04-20T07:30:12.277Z,18.40
2019-04-20T07:32:48.174Z,18.60
2019-04-20T07:35:17.173Z,18.50
2019-04-20T07:40:17.534Z,17.60
2019-04-20T07:42:46.796Z,17.50
2019-04-20T07:45:24.079Z,17.90
2019-04-20T07:47:55.285Z,17.80
2019-04-20T07:50:13.006Z,17.00
2019-04-20T07:52:40.782Z,17.70
2019-04-20T07:55:42.184Z,18.50
2019-04-20T07:57:44.128Z,18.40
2019-04-20T08:00:21.381Z,18.00
2019-04-20T08:03:03.793Z,18.10
2019-04-20T08:05:25.623Z,17.60
2019-04-20T08:07:54.077Z,17.40
2019-04-20T08:10:33.766Z,17.30
2019-04-20T08:13:09.519Z,18.20
2019-04-20T08:15:42.956Z,18.00
2019-04-20T08:18:06.420Z,17.80
2019-04-20T08:20:35.525Z,17.40
2019-04-20T08:23:07.784Z,16.90
2019-04-20T08:25:30.578Z,16.80
2019-04-20T08:28:12.759Z,17.10
2019-04-20T08:30:57.245Z,17.10
2019-04-20T08:33:33.610Z,16.90
2019-04-20T08:36:06.345Z,16.80
2019-04-20T08:41:03.320Z,16.50
2019-04-20T08:43:49.644Z,15.80
2019-04-20T08:46:05.566Z,16.10
2019-04-20T08:48:33.259Z,16.20
2019-04-20T08:51:09.043Z,16.70
2019-04-20T08:53:36.996Z,17.20
2019-04-20T08:55:59.093Z,17.00
2019-04-20T08:58:18.043Z,16.70
2019-04-20T09:00:53.673Z,16.90
2019-04-20T09:03:24.972Z,17.20
2019-04-20T09:06:00.473Z,18.00
2019-04-20T09:08:24.960Z,17.80
2019-04-20T09:11:09.953Z,17.80
2019-04-20T09:13:29.979Z,17.70
2019-04-20T09:15:51.330Z,18.20
2019-04-20T09:18:29.233Z,18.70
2019-04-20T09:21:01.203Z,18.60
2019-04-20T09:23:45.609Z,18.60
2019-04-20T09:26:15.586Z,18.90
2019-04-20T09:28:39.625Z,18.50
2019-04-20T09:31:29.759Z,18.40
2019-04-20T09:34:04.588Z,18.20
2019-04-20T09:36:30.443Z,18.00
2019-04-20T09:39:04.833Z,17.20
2019-04-20T09:41:47.314Z,17.60
2019-04-20T09:43:56.300Z,18.10
2019-04-20T09:46:26.320Z,17.10
2019-04-20T09:48:59.898Z,16.60
2019-04-20T09:51:43.633Z,16.50
2019-04-20T09:54:17.438Z,16.70
2019-04-20T09:56:39.628Z,17.50
2019-04-20T09:59:16.413Z,17.70
2019-04-20T10:01:35.101Z,17.40
2019-04-20T10:03:59.299Z,18.10
2019-04-20T10:06:30.645Z,18.30
2019-04-20T10:09:03.071Z,17.90
2019-04-20T10:11:29.845Z,17.20
2019-04-20T10:13:58.795Z,16.80
2019-04-20T10:16:27.712Z,16.90
2019-04-20T10:18:56.906Z,17.00
2019-04-20T10:21:27.741Z,17.60
2019-04-20T10:23:56.671Z,18.50
2019-04-20T10:26:26.881Z,17.70
2019-04-20T10:28:57.373Z,17.70
2019-04-20T10:31:26.575Z,17.40
2019-04-20T10:33:55.710Z,17.00
2019-04-20T10:36:45.778Z,16.40
2019-04-20T10:39:16.227Z,16.10
2019-04-20T10:41:50.612Z,15.90
2019-04-20T10:44:16.662Z,15.60
2019-04-20T10:46:46.931Z,15.60
2019-04-20T10:49:17.412Z,15.30
2019-04-20T10:51:47.550Z,15.00
2019-04-20T10:54:16.485Z,14.90
2019-04-20T10:56:45.718Z,14.60
2019-04-20T10:59:15.909Z,14.70
2019-04-20T11:01:45.694Z,15.30
2019-04-20T11:04:14.778Z,15.00
2019-04-20T11:06:44.739Z,15.30
2019-04-20T11:09:14.340Z,14.90
2019-04-20T11:11:44.121Z,14.90
2019-04-20T11:14:22.360Z,15.60
2019-04-20T11:16:44.601Z,14.20
2019-04-20T11:19:13.631Z,15.10
2019-04-20T11:21:42.441Z,15.40
2019-04-20T11:24:12.219Z,15.60
2019-04-20T11:26:42.285Z,15.20
2019-04-20T11:29:11.623Z,15.90
2019-04-20T11:31:46.387Z,15.10
2019-04-20T11:34:14.916Z,14.90
2019-04-20T11:36:43.347Z,15.50
2019-04-20T11:39:13.082Z,15.80
2019-04-20T11:41:41.901Z,16.20
2019-04-20T11:44:11.715Z,15.70
2019-04-20T11:46:40.797Z,15.50
2019-04-20T11:49:09.849Z,15.10
2019-04-20T11:51:39.434Z,15.50
2019-04-20T11:54:10.420Z,14.70
2019-04-20T11:56:43.532Z,15.40
2019-04-20T11:59:12.328Z,15.90
2019-04-20T12:01:58.495Z,15.80
2019-04-20T12:04:34.028Z,14.90
2019-04-20T12:06:54.921Z,16.30
2019-04-20T12:09:26.168Z,15.30
2019-04-20T12:12:08.228Z,14.80
2019-04-20T12:14:32.662Z,14.50
2019-04-20T12:16:59.624Z,15.70
2019-04-20T12:19:31.202Z,16.60
2019-04-20T12:22:03.573Z,17.00
2019-04-20T12:24:33.212Z,17.20
2019-04-20T12:27:02.934Z,17.00
2019-04-20T12:29:32.116Z,17.10
2019-04-20T12:32:02.219Z,18.00
2019-04-20T12:34:37.103Z,17.70
2019-04-20T12:37:07.525Z,17.90
2019-04-20T12:39:37.794Z,17.50
2019-04-20T12:42:09.499Z,17.20
2019-04-20T12:44:39.638Z,16.40
2019-04-20T12:47:09.919Z,17.10
2019-04-20T12:49:39.016Z,17.50
2019-04-20T12:52:08.468Z,17.20
2019-04-20T12:54:44.556Z,17.40
2019-04-20T12:57:14.499Z,17.20
2019-04-20T12:59:46.978Z,17.10
2019-04-20T13:02:15.410Z,16.90
2019-04-20T13:04:45.717Z,17.90
2019-04-20T13:07:15.664Z,17.40
2019-04-20T13:09:50.787Z,17.80
2019-04-20T13:12:38.912Z,18.80
2019-04-20T13:15:34.367Z,16.70
2019-04-20T13:18:05.283Z,15.50
2019-04-20T13:20:34.410Z,15.80
2019-04-20T13:23:04.460Z,15.50
2019-04-20T13:25:34.722Z,15.20
2019-04-20T13:28:05.112Z,16.10
2019-04-20T13:30:34.023Z,15.10
2019-04-20T13:33:03.912Z,14.80
2019-04-20T13:35:34.175Z,14.30
2019-04-20T13:38:04.426Z,15.00
2019-04-20T13:40:33.513Z,14.00
2019-04-20T13:43:05.805Z,13.70
2019-04-20T13:45:34.993Z,14.30
2019-04-20T13:48:04.425Z,13.90
2019-04-20T13:50:33.933Z,14.60
2019-04-20T13:53:03.346Z,13.90
2019-04-20T13:55:32.337Z,13.70
2019-04-20T13:58:09.897Z,13.90
2019-04-20T14:00:50.946Z,13.70
2019-04-20T14:03:22.832Z,15.20
2019-04-20T14:05:52.927Z,16.60
2019-04-20T14:08:25.317Z,17.20
2019-04-20T14:10:55.769Z,17.00
2019-04-20T14:13:25.736Z,16.40
2019-04-20T14:15:56.431Z,16.70
2019-04-20T14:18:25.324Z,16.70
2019-04-20T14:20:58.553Z,16.90
2019-04-20T14:23:28.214Z,18.10
2019-04-20T14:26:00.902Z,18.90
2019-04-20T14:28:31.167Z,19.70
2019-04-20T14:31:01.521Z,20.50
2019-04-20T14:33:30.763Z,21.20
2019-04-20T14:36:00.981Z,21.40
2019-04-20T14:38:31.463Z,23.00
2019-04-20T14:41:04.295Z,22.00
2019-04-20T14:43:34.686Z,22.80
2019-04-20T14:46:04.920Z,23.00
2019-04-20T14:48:34.484Z,23.50
2019-04-20T14:51:03.623Z,24.10
2019-04-20T14:53:33.632Z,23.20
2019-04-20T14:56:02.482Z,23.80
2019-04-20T14:58:41.389Z,24.50
2019-04-20T15:01:27.605Z,23.40
2019-04-20T15:04:01.511Z,23.10
2019-04-20T15:06:27.550Z,23.00
2019-04-20T15:08:57.275Z,23.30
2019-04-20T15:11:27.084Z,23.40
2019-04-20T15:13:56.457Z,23.50
2019-04-20T15:16:26.498Z,23.80
2019-04-20T15:18:58.118Z,23.70
2019-04-20T15:21:37.912Z,23.40
2019-04-20T15:24:06.821Z,23.50
2019-04-20T15:26:36.287Z,22.60
2019-04-20T15:29:06.392Z,23.70
2019-04-20T15:31:36.406Z,22.80
2019-04-20T15:34:06.756Z,23.10
2019-04-20T15:36:36.075Z,22.70
2019-04-20T15:39:07.389Z,22.60
2019-04-20T15:41:36.237Z,23.20
2019-04-20T15:44:05.340Z,22.00
2019-04-20T15:46:35.307Z,22.20
2019-04-20T15:49:06.033Z,22.20
2019-04-20T15:51:34.915Z,22.20
2019-04-20T15:54:05.184Z,22.40
2019-04-20T15:56:35.372Z,22.00
2019-04-20T15:59:04.532Z,23.30
2019-04-20T16:01:36.482Z,22.90
2019-04-20T16:04:10.730Z,22.90
2019-04-20T16:06:39.125Z,22.20
2019-04-20T16:09:10.335Z,22.70
2019-04-20T16:11:39.279Z,22.90
2019-04-20T16:14:09.073Z,22.90
2019-04-20T16:16:38.093Z,22.70
2019-04-20T16:19:14.646Z,22.70
2019-04-20T16:21:37.637Z,22.80
2019-04-20T16:24:08.928Z,23.50
2019-04-20T16:26:43.996Z,22.80
2019-04-20T16:29:13.438Z,22.70
2019-04-20T16:31:44.036Z,22.70
2019-04-20T16:34:13.671Z,22.30
2019-04-20T16:36:42.599Z,22.90
2019-04-20T16:39:12.656Z,22.60
2019-04-20T16:41:42.402Z,23.00
2019-04-20T16:44:11.419Z,22.60
2019-04-20T16:46:40.450Z,22.00
2019-04-20T16:49:10.787Z,22.00
2019-04-20T16:51:40.904Z,23.30
2019-04-20T16:54:10.173Z,22.70
2019-04-20T16:56:39.115Z,22.00
2019-04-20T16:59:11.579Z,22.90
2019-04-20T17:01:38.439Z,22.40
2019-04-20T17:04:12.905Z,21.00
2019-04-20T17:06:40.098Z,21.70
2019-04-20T17:09:10.064Z,22.40
2019-04-20T17:11:39.723Z,21.70
2019-04-20T17:14:08.616Z,23.30
2019-04-20T17:16:37.685Z,21.90
2019-04-20T17:19:07.746Z,22.00
2019-04-20T17:21:37.379Z,22.40
2019-04-20T17:24:09.014Z,22.60
2019-04-20T17:26:43.373Z,22.60
2019-04-20T17:29:14.056Z,23.30
2019-04-20T17:31:45.167Z,23.00
2019-04-20T17:34:29.748Z,22.50
2019-04-20T17:36:46.364Z,22.80
2019-04-20T17:39:26.232Z,23.50
2019-04-20T17:42:03.406Z,22.60
2019-04-20T17:44:34.115Z,22.80
2019-04-20T17:46:59.335Z,23.50
2019-04-20T17:49:31.547Z,23.70
2019-04-20T17:52:12.729Z,23.70
2019-04-20T17:54:20.078Z,25.20
2019-04-20T17:56:49.969Z,24.10
2019-04-20T17:59:20.168Z,24.30
2019-04-20T18:02:05.322Z,24.20
2019-04-20T18:04:57.388Z,24.90
2019-04-20T18:07:10.945Z,26.30
2019-04-20T18:09:54.530Z,25.30
2019-04-20T18:12:04.446Z,25.40
2019-04-20T18:14:43.279Z,26.30
2019-04-20T18:17:29.337Z,26.50
2019-04-20T18:19:57.019Z,25.60
2019-04-20T18:22:26.131Z,25.70
2019-04-20T18:25:17.023Z,26.30
2019-04-20T18:27:42.646Z,25.90
2019-04-20T18:30:11.725Z,26.00
2019-04-20T18:32:29.659Z,26.50
2019-04-20T18:35:03.527Z,27.00
2019-04-20T18:37:32.747Z,26.60
2019-04-20T18:40:07.381Z,26.90
2019-04-20T18:42:38.900Z,27.20
2019-04-20T18:45:21.701Z,27.70
2019-04-20T18:47:56.305Z,27.90
2019-04-20T18:50:17.408Z,28.20
2019-04-20T18:52:40.043Z,28.40
2019-04-20T18:55:17.593Z,28.10
2019-04-20T18:57:39.858Z,28.30
2019-04-20T19:00:18.048Z,28.60
2019-04-20T19:02:45.476Z,28.70
2019-04-20T19:05:11.510Z,28.80
2019-04-20T19:07:51.646Z,29.40
2019-04-20T19:10:18.625Z,29.00
2019-04-20T19:12:51.870Z,29.30
2019-04-20T19:15:46.389Z,29.00
2019-04-20T19:18:15.669Z,28.90
2019-04-20T19:20:45.374Z,29.20
2019-04-20T19:23:14.768Z,29.10
2019-04-20T19:25:44.222Z,29.40
2019-04-20T19:28:14.439Z,29.70
2019-04-20T19:30:56.085Z,29.90
2019-04-20T19:33:30.997Z,29.90
2019-04-20T19:35:52.983Z,30.00
2019-04-20T19:38:21.895Z,30.10
2019-04-20T19:40:56.499Z,30.40
2019-04-20T19:43:27.800Z,30.30
2019-04-20T19:46:31.432Z,30.50
2019-04-20T19:48:36.271Z,30.50
2019-04-20T19:51:10.157Z,30.80
2019-04-20T19:53:45.523Z,31.00
2019-04-20T19:56:03.491Z,31.40
2019-04-20T19:58:33.124Z,31.30
2019-04-20T20:00:55.569Z,31.30
2019-04-20T20:03:23.923Z,31.20
2019-04-20T20:05:55.751Z,31.00
2019-04-20T20:08:26.047Z,31.10
2019-04-20T20:10:58.198Z,31.30
2019-04-20T20:13:34.578Z,31.40
2019-04-20T20:16:02.359Z,32.00
2019-04-20T20:18:41.338Z,31.30
2019-04-20T20:21:10.973Z,31.40
2019-04-20T20:23:27.982Z,31.80
2019-04-20T20:25:57.104Z,31.50
2019-04-20T20:28:33.326Z,31.50
2019-04-20T20:31:08.560Z,31.50
2019-04-20T20:33:43.930Z,31.50
2019-04-20T20:36:05.739Z,31.90
2019-04-20T20:38:36.927Z,31.70
2019-04-20T20:41:10.605Z,31.80
2019-04-20T20:43:42.358Z,32.10
2019-04-20T20:46:10.657Z,32.30
2019-04-20T20:48:49.468Z,32.20
2019-04-20T20:51:17.753Z,32.20
2019-04-20T20:53:46.703Z,32.30
2019-04-20T20:56:13.353Z,32.30
2019-04-20T20:58:43.858Z,32.50
2019-04-20T21:01:09.747Z,32.70
2019-04-20T21:03:40.420Z,32.60
2019-04-20T21:06:03.397Z,32.90
2019-04-20T21:08:36.249Z,32.80
2019-04-20T21:11:04.761Z,32.80
2019-04-20T21:13:39.475Z,33.00
2019-04-20T21:16:11.949Z,33.30
2019-04-20T21:18:52.579Z,33.40
2019-04-20T21:21:18.589Z,33.50
2019-04-20T21:23:45.576Z,33.50
2019-04-20T21:26:12.772Z,33.80
2019-04-20T21:28:39.793Z,33.80
2019-04-20T21:31:14.622Z,33.80
2019-04-20T21:33:40.942Z,34.00
2019-04-20T21:36:13.587Z,34.00
2019-04-20T21:38:42.458Z,33.90
2019-04-20T21:41:15.014Z,33.90
2019-04-20T21:43:44.473Z,34.10
2019-04-20T21:46:13.697Z,34.30
2019-04-20T21:48:57.887Z,34.10
2019-04-20T21:51:25.608Z,34.40
2019-04-20T21:53:44.297Z,34.10
2019-04-20T21:56:13.352Z,34.40
2019-04-20T21:58:49.416Z,34.30
2019-04-20T22:01:22.161Z,35.30
2019-04-20T22:03:44.856Z,34.80
2019-04-20T22:06:14.033Z,34.90
2019-04-20T22:08:49.372Z,34.90
2019-04-20T22:11:13.680Z,35.10
2019-04-20T22:13:44.580Z,35.00
2019-04-20T22:16:14.750Z,35.90
2019-04-20T22:18:54.003Z,35.40
2019-04-20T22:21:24.809Z,35.30
2019-04-20T22:24:00.535Z,35.80
2019-04-20T22:26:25.387Z,35.60
2019-04-20T22:28:45.403Z,35.70
2019-04-20T22:31:14.203Z,36.00
2019-04-20T22:33:45.030Z,36.10
2019-04-20T22:36:14.638Z,36.10
2019-04-20T22:39:03.351Z,36.40
2019-04-20T22:41:34.353Z,36.30
2019-04-20T22:44:11.540Z,36.30
2019-04-20T22:46:36.827Z,36.20
2019-04-20T22:49:21.018Z,36.40
2019-04-20T22:51:44.847Z,36.70
2019-04-20T22:54:21.226Z,36.60
2019-04-20T22:56:50.514Z,36.60
2019-04-20T22:59:12.789Z,36.90
2019-04-20T23:01:44.428Z,36.90
2019-04-20T23:04:08.637Z,36.80
2019-04-20T23:06:43.880Z,37.50
2019-04-20T23:09:12.217Z,37.50
2019-04-20T23:11:40.430Z,37.80
2019-04-20T23:14:10.838Z,37.60
2019-04-20T23:16:43.962Z,38.10
2019-04-20T23:19:10.342Z,37.80
2019-04-20T23:21:46.755Z,37.70
2019-04-20T23:24:12.964Z,37.90
2019-04-20T23:26:42.561Z,38.20
2019-04-20T23:29:11.322Z,38.50
2019-04-20T23:31:50.536Z,38.70
2019-04-20T23:34:16.604Z,38.60
2019-04-20T23:36:45.209Z,38.50
2019-04-20T23:39:13.018Z,38.70
2019-04-20T23:41:49.896Z,39.10
2019-04-20T23:44:18.874Z,39.00
2019-04-20T23:46:53.437Z,39.10
2019-04-20T23:49:34.054Z,39.10
2019-04-20T23:52:21.392Z,39.40
2019-04-20T23:54:30.360Z,39.70
2019-04-20T23:56:59.687Z,39.70
2019-04-20T23:59:34.350Z,39.60
